CSAV Lonquen — A8OT2 — position and weather

sailwx.info

Track history (hours):
 
Tides and Currents Weather Stations Pressure Air Temp Water Temp Dewpoint Dewpoint Depression Visibility Wind Speed Wind Dir Waves Ship Positions

CSAV Lonquen

Last reported at 2017-Sep-16 14:51 UTC. Time now 2017-Sep-21 06:57 UTC.
Position N 01°15' E 103°25'.

Length 261 m; draft 12.4 m.

Type: Ship (hazmat cat D). MMSI: 636018108.

Date/timePositionNaut miles runAvg speedWind from/ knotsBaromVisibWave heightAir tempDewpointWater temp
2017-Sep-16 14:51N 01°15' E 103°25'616.4
2017-Sep-16 14:30N 01°13' E 103°30'815.3
2017-Sep-16 13:58N 01°12' E 103°38'2 5.3
2017-Sep-16 13:31N 01°13' E 103°41'612.1
2017-Sep-16 13:00N 01°16' E 103°46'1 2.5
2017-Sep-16 12:30N 01°16' E 103°47'0 0.0
2017-Sep-16 12:00N 01°16' E 103°47'0 0.0
2017-Sep-16 11:30N 01°16' E 103°47'0 0.0
2017-Sep-16 10:57N 01°16' E 103°47'0 0.0
2017-Sep-16 10:30N 01°16' E 103°47'0 0.0
2017-Sep-16 10:00N 01°16' E 103°47'0 0.0
2017-Sep-16 09:30N 01°16' E 103°47'0 0.0
2017-Sep-16 08:57N 01°16' E 103°47'0 0.0
2017-Sep-16 08:27N 01°16' E 103°47'0 0.0
2017-Sep-16 07:57N 01°16' E 103°47'0 0.0
2017-Sep-16 07:30N 01°16' E 103°47'0 0.0
2017-Sep-16 07:00N 01°16' E 103°47'0 0.0
2017-Sep-16 06:30N 01°16' E 103°47'0 0.0
2017-Sep-16 05:57N 01°16' E 103°47'0 0.0
2017-Sep-16 05:27N 01°16' E 103°47'0 0.0
2017-Sep-16 04:54N 01°16' E 103°47'0 0.0
2017-Sep-16 04:30N 01°16' E 103°47'0 0.0
2017-Sep-16 04:00N 01°16' E 103°47'0 0.0
2017-Sep-16 03:30N 01°16' E 103°47'0 0.0
2017-Sep-16 03:00N 01°16' E 103°47'0 0.0
2017-Sep-16 02:30N 01°16' E 103°47'0 0.0
2017-Sep-16 02:00N 01°16' E 103°47'0 0.0
2017-Sep-16 01:30N 01°16' E 103°47'0 0.4
2017-Sep-16 01:00N 01°16' E 103°47'2 4.1
2017-Sep-16 00:30N 01°14' E 103°47'3 6.1
2017-Sep-16 00:00N 01°12' E 103°50'4 7.1
2017-Sep-15 23:30N 01°13' E 103°53'610.5
2017-Sep-15 22:58N 01°15' E 103°59'612.5
2017-Sep-15 22:28N 01°16' E 104°05'612.9
2017-Sep-15 21:59N 01°17' E 104°11'  
2017-Sep-11 23:55N 22°34' E 114°16'19912.7
2017-Sep-11 08:13N 23°15' E 117°47'618.1
2017-Sep-11 07:54N 23°19' E 117°51'42017.5
2017-Sep-10 07:54N 28°55' E 122°31'818.9
2017-Sep-10 07:30N 29°03' E 122°30'1019.5
2017-Sep-10 06:58N 29°13' E 122°30'918.9
2017-Sep-10 06:30N 29°22' E 122°29'918.5
2017-Sep-10 06:00N 29°31' E 122°30'918.6
2017-Sep-10 05:31N 29°40' E 122°25'917.1
2017-Sep-10 05:01N 29°45' E 122°18'611.2
2017-Sep-10 04:30N 29°49' E 122°13'713.5
2017-Sep-10 04:00N 29°55' E 122°09'510.3
2017-Sep-10 03:30N 29°54' E 122°03'0 0.6
2017-Sep-10 02:59N 29°53' E 122°03'0 0.0
2017-Sep-10 02:29N 29°53' E 122°03'0 0.0
2017-Sep-10 01:59N 29°53' E 122°03'0 0.0
2017-Sep-10 01:29N 29°53' E 122°03'0 0.0
2017-Sep-10 00:53N 29°53' E 122°03'0 0.0
2017-Sep-10 00:17N 29°53' E 122°03'0 0.0
2017-Sep-09 23:59N 29°53' E 122°03'0 0.0
2017-Sep-09 23:23N 29°53' E 122°03'0 0.0
2017-Sep-09 22:59N 29°53' E 122°03'0 0.0
2017-Sep-09 22:23N 29°53' E 122°03'0 0.0
2017-Sep-09 21:59N 29°53' E 122°03'0 0.0
2017-Sep-09 21:29N 29°53' E 122°03'0 0.0
2017-Sep-09 20:59N 29°53' E 122°03'0 0.0
2017-Sep-09 20:29N 29°53' E 122°03'0 0.0
2017-Sep-09 19:59N 29°53' E 122°03'0 0.0
2017-Sep-09 19:24N 29°53' E 122°03'1 1.8
2017-Sep-09 19:00N 29°54' E 122°04'1 2.9
2017-Sep-09 18:30N 29°55' E 122°05'3 6.4
2017-Sep-09 18:00N 29°56' E 122°09'713.8
2017-Sep-09 17:30N 29°50' E 122°13'510.0
2017-Sep-09 17:00N 29°46' E 122°17'510.1
2017-Sep-09 16:30N 29°44' E 122°23'510.5
2017-Sep-09 16:00N 29°44' E 122°29'5 9.8
2017-Sep-09 15:30N 29°41' E 122°34'5 9.4
2017-Sep-09 14:57N 29°45' E 122°38'410.1
2017-Sep-09 14:30N 29°49' E 122°40'810.1
2017-Sep-09 13:43N 29°55' E 122°45'210.1
2017-Sep-09 13:29N 29°58' E 122°46'1410.5
2017-Sep-09 12:10N 30°11' E 122°49'310.7
2017-Sep-09 11:52N 30°14' E 122°49'1110.4
2017-Sep-09 10:49N 30°25' E 122°49'6 9.8
2017-Sep-09 10:15N 30°28' E 122°43'23 1.4
2017-Sep-08 17:28N 30°33' E 122°17'26 6.4
2017-Sep-08 13:26N 30°35' E 122°47'3 7.6
2017-Sep-08 12:59N 30°35' E 122°51'4 8.9
2017-Sep-08 12:30N 30°38' E 122°55'68 9.7
2017-Sep-08 05:32N 31°16' E 121°50'114.5
2017-Sep-08 05:30N 31°17' E 121°49'611.1
2017-Sep-08 05:00N 31°19' E 121°44'3 6.1
2017-Sep-08 04:30N 31°20' E 121°40'0 0.5
2017-Sep-08 03:57N 31°20' E 121°40'0 0.0
2017-Sep-08 03:27N 31°20' E 121°40'0 0.0
2017-Sep-08 02:57N 31°20' E 121°40'0 0.0
2017-Sep-08 02:30N 31°20' E 121°40'0 0.0
2017-Sep-08 02:00N 31°20' E 121°40'0 0.0
2017-Sep-08 01:30N 31°20' E 121°40'0 0.0
2017-Sep-08 01:00N 31°20' E 121°40'0 0.0
2017-Sep-08 00:30N 31°20' E 121°40'0 0.0
2017-Sep-08 00:00N 31°20' E 121°40'0 0.0
2017-Sep-07 23:30N 31°20' E 121°40'0 0.0
2017-Sep-07 23:00N 31°20' E 121°40'0 0.0
2017-Sep-07 22:27N 31°20' E 121°40'0 0.0
2017-Sep-07 22:00N 31°20' E 121°40'0 0.0
2017-Sep-07 21:30N 31°20' E 121°40'0 0.0
2017-Sep-07 21:00N 31°20' E 121°40'0 0.0
2017-Sep-07 20:30N 31°20' E 121°40'0 0.0
2017-Sep-07 20:00N 31°20' E 121°40'0 0.0
2017-Sep-07 19:30N 31°20' E 121°40'0 0.0
2017-Sep-07 19:00N 31°20' E 121°40'0 0.0
2017-Sep-07 18:21N 31°20' E 121°40'0 0.0
2017-Sep-07 17:57N 31°20' E 121°40'0 0.0
2017-Sep-07 17:30N 31°20' E 121°40'0 0.0
2017-Sep-07 17:00N 31°20' E 121°40'0 0.0
2017-Sep-07 16:30N 31°20' E 121°40'0 0.0
2017-Sep-07 16:00N 31°20' E 121°40'0 0.0
2017-Sep-07 15:30N 31°20' E 121°40'0 0.0
2017-Sep-07 15:00N 31°20' E 121°40'0 0.0
2017-Sep-07 14:30N 31°20' E 121°40'0 0.0
2017-Sep-07 14:00N 31°20' E 121°40'0 0.0
2017-Sep-07 13:30N 31°20' E 121°40'0 0.0
2017-Sep-07 13:00N 31°20' E 121°40'0 0.0
2017-Sep-07 12:30N 31°20' E 121°40'0 0.0
2017-Sep-07 12:00N 31°20' E 121°40'0 0.0
2017-Sep-07 11:30N 31°20' E 121°40'0 0.3
2017-Sep-07 11:00N 31°20' E 121°40'1 2.4
2017-Sep-07 10:30N 31°19' E 121°41'3 6.0
2017-Sep-07 10:01N 31°19' E 121°45'3 6.1
2017-Sep-07 09:31N 31°17' E 121°48'5 9.5
2017-Sep-07 09:00N 31°16' E 121°53'510.9
2017-Sep-07 08:30N 31°15' E 121°60'510.7
2017-Sep-07 08:00N 31°14' E 122°06'5 9.5
2017-Sep-07 07:31N 31°11' E 122°10'5 9.5
2017-Sep-07 06:58N 31°08' E 122°15'  
Track history (hours):
 
Tides and Currents Weather Stations Pressure Air Temp Water Temp Dewpoint Dewpoint Depression Visibility Wind Speed Wind Dir Waves Ship Positions

CSAV Lonquen

Last reported at 2017-Sep-16 14:51 UTC. Time now 2017-Sep-21 06:57 UTC.
Position N 01°15' E 103°25'.

Length 261 m; draft 12.4 m.

Type: Ship (hazmat cat D). MMSI: 636018108.

Date/timePositionNaut miles runAvg speedWind from/ knotsBaromVisibWave heightAir tempDewpointWater temp
2017-Sep-16 14:51N 01°15' E 103°25'616.4
2017-Sep-16 14:30N 01°13' E 103°30'815.3
2017-Sep-16 13:58N 01°12' E 103°38'2 5.3
2017-Sep-16 13:31N 01°13' E 103°41'612.1
2017-Sep-16 13:00N 01°16' E 103°46'1 2.5
2017-Sep-16 12:30N 01°16' E 103°47'0 0.0
2017-Sep-16 12:00N 01°16' E 103°47'0 0.0
2017-Sep-16 11:30N 01°16' E 103°47'0 0.0
2017-Sep-16 10:57N 01°16' E 103°47'0 0.0
2017-Sep-16 10:30N 01°16' E 103°47'0 0.0
2017-Sep-16 10:00N 01°16' E 103°47'0 0.0
2017-Sep-16 09:30N 01°16' E 103°47'0 0.0
2017-Sep-16 08:57N 01°16' E 103°47'0 0.0
2017-Sep-16 08:27N 01°16' E 103°47'0 0.0
2017-Sep-16 07:57N 01°16' E 103°47'0 0.0
2017-Sep-16 07:30N 01°16' E 103°47'0 0.0
2017-Sep-16 07:00N 01°16' E 103°47'0 0.0
2017-Sep-16 06:30N 01°16' E 103°47'0 0.0
2017-Sep-16 05:57N 01°16' E 103°47'0 0.0
2017-Sep-16 05:27N 01°16' E 103°47'0 0.0
2017-Sep-16 04:54N 01°16' E 103°47'0 0.0
2017-Sep-16 04:30N 01°16' E 103°47'0 0.0
2017-Sep-16 04:00N 01°16' E 103°47'0 0.0
2017-Sep-16 03:30N 01°16' E 103°47'0 0.0
2017-Sep-16 03:00N 01°16' E 103°47'0 0.0
2017-Sep-16 02:30N 01°16' E 103°47'0 0.0
2017-Sep-16 02:00N 01°16' E 103°47'0 0.0
2017-Sep-16 01:30N 01°16' E 103°47'0 0.4
2017-Sep-16 01:00N 01°16' E 103°47'2 4.1
2017-Sep-16 00:30N 01°14' E 103°47'3 6.1
2017-Sep-16 00:00N 01°12' E 103°50'4 7.1
2017-Sep-15 23:30N 01°13' E 103°53'610.5
2017-Sep-15 22:58N 01°15' E 103°59'612.5
2017-Sep-15 22:28N 01°16' E 104°05'612.9
2017-Sep-15 21:59N 01°17' E 104°11'  
2017-Sep-11 23:55N 22°34' E 114°16'19912.7
2017-Sep-11 08:13N 23°15' E 117°47'618.1
2017-Sep-11 07:54N 23°19' E 117°51'42017.5
2017-Sep-10 07:54N 28°55' E 122°31'818.9
2017-Sep-10 07:30N 29°03' E 122°30'1019.5
2017-Sep-10 06:58N 29°13' E 122°30'918.9
2017-Sep-10 06:30N 29°22' E 122°29'918.5
2017-Sep-10 06:00N 29°31' E 122°30'918.6
2017-Sep-10 05:31N 29°40' E 122°25'917.1
2017-Sep-10 05:01N 29°45' E 122°18'611.2
2017-Sep-10 04:30N 29°49' E 122°13'713.5
2017-Sep-10 04:00N 29°55' E 122°09'510.3
2017-Sep-10 03:30N 29°54' E 122°03'0 0.6
2017-Sep-10 02:59N 29°53' E 122°03'0 0.0
2017-Sep-10 02:29N 29°53' E 122°03'0 0.0
2017-Sep-10 01:59N 29°53' E 122°03'0 0.0
2017-Sep-10 01:29N 29°53' E 122°03'0 0.0
2017-Sep-10 00:53N 29°53' E 122°03'0 0.0
2017-Sep-10 00:17N 29°53' E 122°03'0 0.0
2017-Sep-09 23:59N 29°53' E 122°03'0 0.0
2017-Sep-09 23:23N 29°53' E 122°03'0 0.0
2017-Sep-09 22:59N 29°53' E 122°03'0 0.0
2017-Sep-09 22:23N 29°53' E 122°03'0 0.0
2017-Sep-09 21:59N 29°53' E 122°03'0 0.0
2017-Sep-09 21:29N 29°53' E 122°03'0 0.0
2017-Sep-09 20:59N 29°53' E 122°03'0 0.0
2017-Sep-09 20:29N 29°53' E 122°03'0 0.0
2017-Sep-09 19:59N 29°53' E 122°03'0 0.0
2017-Sep-09 19:24N 29°53' E 122°03'1 1.8
2017-Sep-09 19:00N 29°54' E 122°04'1 2.9
2017-Sep-09 18:30N 29°55' E 122°05'3 6.4
2017-Sep-09 18:00N 29°56' E 122°09'713.8
2017-Sep-09 17:30N 29°50' E 122°13'510.0
2017-Sep-09 17:00N 29°46' E 122°17'510.1
2017-Sep-09 16:30N 29°44' E 122°23'510.5
2017-Sep-09 16:00N 29°44' E 122°29'5 9.8
2017-Sep-09 15:30N 29°41' E 122°34'5 9.4
2017-Sep-09 14:57N 29°45' E 122°38'410.1
2017-Sep-09 14:30N 29°49' E 122°40'810.1
2017-Sep-09 13:43N 29°55' E 122°45'210.1
2017-Sep-09 13:29N 29°58' E 122°46'1410.5
2017-Sep-09 12:10N 30°11' E 122°49'310.7
2017-Sep-09 11:52N 30°14' E 122°49'1110.4
2017-Sep-09 10:49N 30°25' E 122°49'6 9.8
2017-Sep-09 10:15N 30°28' E 122°43'23 1.4
2017-Sep-08 17:28N 30°33' E 122°17'26 6.4
2017-Sep-08 13:26N 30°35' E 122°47'3 7.6
2017-Sep-08 12:59N 30°35' E 122°51'4 8.9
2017-Sep-08 12:30N 30°38' E 122°55'68 9.7
2017-Sep-08 05:32N 31°16' E 121°50'114.5
2017-Sep-08 05:30N 31°17' E 121°49'611.1
2017-Sep-08 05:00N 31°19' E 121°44'3 6.1
2017-Sep-08 04:30N 31°20' E 121°40'0 0.5
2017-Sep-08 03:57N 31°20' E 121°40'0 0.0
2017-Sep-08 03:27N 31°20' E 121°40'0 0.0
2017-Sep-08 02:57N 31°20' E 121°40'0 0.0
2017-Sep-08 02:30N 31°20' E 121°40'0 0.0
2017-Sep-08 02:00N 31°20' E 121°40'0 0.0
2017-Sep-08 01:30N 31°20' E 121°40'0 0.0
2017-Sep-08 01:00N 31°20' E 121°40'0 0.0
2017-Sep-08 00:30N 31°20' E 121°40'0 0.0
2017-Sep-08 00:00N 31°20' E 121°40'0 0.0
2017-Sep-07 23:30N 31°20' E 121°40'0 0.0
2017-Sep-07 23:00N 31°20' E 121°40'0 0.0
2017-Sep-07 22:27N 31°20' E 121°40'0 0.0
2017-Sep-07 22:00N 31°20' E 121°40'0 0.0
2017-Sep-07 21:30N 31°20' E 121°40'0 0.0
2017-Sep-07 21:00N 31°20' E 121°40'0 0.0
2017-Sep-07 20:30N 31°20' E 121°40'0 0.0
2017-Sep-07 20:00N 31°20' E 121°40'0 0.0
2017-Sep-07 19:30N 31°20' E 121°40'0 0.0
2017-Sep-07 19:00N 31°20' E 121°40'0 0.0
2017-Sep-07 18:21N 31°20' E 121°40'0 0.0
2017-Sep-07 17:57N 31°20' E 121°40'0 0.0
2017-Sep-07 17:30N 31°20' E 121°40'0 0.0
2017-Sep-07 17:00N 31°20' E 121°40'0 0.0
2017-Sep-07 16:30N 31°20' E 121°40'0 0.0
2017-Sep-07 16:00N 31°20' E 121°40'0 0.0
2017-Sep-07 15:30N 31°20' E 121°40'0 0.0
2017-Sep-07 15:00N 31°20' E 121°40'0 0.0
2017-Sep-07 14:30N 31°20' E 121°40'0 0.0
2017-Sep-07 14:00N 31°20' E 121°40'0 0.0
2017-Sep-07 13:30N 31°20' E 121°40'0 0.0
2017-Sep-07 13:00N 31°20' E 121°40'0 0.0
2017-Sep-07 12:30N 31°20' E 121°40'0 0.0
2017-Sep-07 12:00N 31°20' E 121°40'0 0.0
2017-Sep-07 11:30N 31°20' E 121°40'0 0.3
2017-Sep-07 11:00N 31°20' E 121°40'1 2.4
2017-Sep-07 10:30N 31°19' E 121°41'3 6.0
2017-Sep-07 10:01N 31°19' E 121°45'3 6.1
2017-Sep-07 09:31N 31°17' E 121°48'5 9.5
2017-Sep-07 09:00N 31°16' E 121°53'510.9
2017-Sep-07 08:30N 31°15' E 121°60'510.7
2017-Sep-07 08:00N 31°14' E 122°06'5 9.5
2017-Sep-07 07:31N 31°11' E 122°10'5 9.5
2017-Sep-07 06:58N 31°08' E 122°15'  

Dump ship's entire track history